createdAt,value
2017-07-04T00:00:01.217Z,938.27
2017-07-04T00:00:19.480Z,938.24
2017-07-04T00:00:37.749Z,938.26
2017-07-04T00:00:57.046Z,938.28
2017-07-04T00:01:14.773Z,938.3
2017-07-04T00:01:33.033Z,938.25
2017-07-04T00:01:51.828Z,938.3
2017-07-04T00:02:10.082Z,938.27
2017-07-04T00:02:28.362Z,938.31
2017-07-04T00:02:47.680Z,938.29
2017-07-04T00:03:07.074Z,938.26
2017-07-04T00:03:25.861Z,938.3
2017-07-04T00:03:45.192Z,938.26
2017-07-04T00:04:03.980Z,938.26
2017-07-04T00:04:22.233Z,938.3
2017-07-04T00:04:41.028Z,938.28
2017-07-04T00:04:59.832Z,938.29
2017-07-04T00:05:17.557Z,938.3
2017-07-04T00:05:35.814Z,938.23
2017-07-04T00:05:54.073Z,938.25
2017-07-04T00:06:12.864Z,938.26
2017-07-04T00:06:31.632Z,938.28
2017-07-04T00:06:49.362Z,938.26
2017-07-04T00:07:08.130Z,938.22
2017-07-04T00:07:27.426Z,938.24
2017-07-04T00:07:45.682Z,938.25
2017-07-04T00:08:03.963Z,938.22
2017-07-04T00:08:22.746Z,938.2
2017-07-04T00:08:42.070Z,938.2
2017-07-04T00:09:01.353Z,938.14
2017-07-04T00:09:20.142Z,938.26
2017-07-04T00:09:38.924Z,938.22
2017-07-04T00:09:57.704Z,938.28
2017-07-04T00:10:16.484Z,938.29
2017-07-04T00:10:35.260Z,938.22
2017-07-04T00:10:53.010Z,938.28
2017-07-04T00:11:11.259Z,938.31
2017-07-04T00:11:30.644Z,938.24
2017-07-04T00:11:48.925Z,938.24
2017-07-04T00:12:08.224Z,938.2
2017-07-04T00:12:26.997Z,938.23
2017-07-04T00:12:45.263Z,938.24
2017-07-04T00:13:03.543Z,938.26
2017-07-04T00:13:21.856Z,938.22
2017-07-04T00:13:40.105Z,938.16
2017-07-04T00:13:59.427Z,938.18
2017-07-04T00:14:18.215Z,938.16
2017-07-04T00:14:39.551Z,938.18
2017-07-04T00:14:59.588Z,938.19
2017-07-04T00:15:19.036Z,938.2
2017-07-04T00:15:37.339Z,938.17
2017-07-04T00:15:55.665Z,938.17
2017-07-04T00:16:13.970Z,938.22
2017-07-04T00:16:31.705Z,938.2
2017-07-04T00:16:50.575Z,938.23
2017-07-04T00:17:10.031Z,938.18
2017-07-04T00:17:28.912Z,938.19
2017-07-04T00:17:48.946Z,938.21
2017-07-04T00:18:08.377Z,938.21
2017-07-04T00:18:27.249Z,938.2
2017-07-04T00:18:46.721Z,938.19
2017-07-04T00:19:05.040Z,938.2
2017-07-04T00:19:23.335Z,938.2
2017-07-04T00:19:41.624Z,938.24
2017-07-04T00:20:01.044Z,938.23
2017-07-04T00:20:20.474Z,938.23
2017-07-04T00:20:39.360Z,938.22
2017-07-04T00:20:58.829Z,938.21
2017-07-04T00:21:18.282Z,938.16
2017-07-04T00:21:37.150Z,938.19
2017-07-04T00:21:56.017Z,938.16
2017-07-04T00:22:16.032Z,938.19
2017-07-04T00:22:34.350Z,938.21
2017-07-04T00:22:54.359Z,938.21
2017-07-04T00:23:11.528Z,938.2
2017-07-04T00:23:30.966Z,938.22
2017-07-04T00:23:50.494Z,938.25
2017-07-04T00:24:10.529Z,938.19
2017-07-04T00:24:29.981Z,938.22
2017-07-04T00:24:49.686Z,938.16
2017-07-04T00:25:09.236Z,938.11
2017-07-04T00:25:29.316Z,938.19
2017-07-04T00:25:48.783Z,938.17
2017-07-04T00:26:08.214Z,938.2
2017-07-04T00:26:28.342Z,938.18
2017-07-04T00:26:47.840Z,938.23
2017-07-04T00:27:07.358Z,938.18
2017-07-04T00:27:27.420Z,938.23
2017-07-04T00:27:46.880Z,938.22
2017-07-04T00:28:06.330Z,938.19
2017-07-04T00:28:25.806Z,938.2
2017-07-04T00:28:45.879Z,938.16
2017-07-04T00:29:05.889Z,938.17
2017-07-04T00:29:24.200Z,938.21
2017-07-04T00:29:43.644Z,938.15
2017-07-04T00:30:03.650Z,938.18
2017-07-04T00:30:21.975Z,938.15
2017-07-04T00:30:42.012Z,938.16
2017-07-04T00:31:01.451Z,938.17
2017-07-04T00:31:20.915Z,938.18
2017-07-04T00:31:40.396Z,938.21
2017-07-04T00:32:00.434Z,938.18
2017-07-04T00:32:19.903Z,938.21
2017-07-04T00:32:39.359Z,938.14
2017-07-04T00:32:58.843Z,938.19
2017-07-04T00:33:18.288Z,938.22
2017-07-04T00:33:38.294Z,938.18
2017-07-04T00:33:58.316Z,938.2
2017-07-04T00:34:17.772Z,938.22
2017-07-04T00:34:36.663Z,938.19
2017-07-04T00:34:55.537Z,938.19
2017-07-04T00:35:14.410Z,938.2
2017-07-04T00:35:33.903Z,938.19
2017-07-04T00:35:52.802Z,938.22
2017-07-04T00:36:12.309Z,938.22
2017-07-04T00:36:31.800Z,938.2
2017-07-04T00:36:51.812Z,938.21
2017-07-04T00:37:10.145Z,938.23
2017-07-04T00:37:29.019Z,938.24
2017-07-04T00:37:47.328Z,938.26
2017-07-04T00:38:06.781Z,938.25
2017-07-04T00:38:26.805Z,938.22
2017-07-04T00:38:46.286Z,938.21
2017-07-04T00:39:06.322Z,938.23
2017-07-04T00:39:25.179Z,938.14
2017-07-04T00:39:45.187Z,938.24
2017-07-04T00:40:09.245Z,938.18
2017-07-04T00:40:29.324Z,938.2
2017-07-04T00:40:48.218Z,938.21
2017-07-04T00:41:07.654Z,938.16
2017-07-04T00:41:26.537Z,938.2
2017-07-04T00:41:45.953Z,938.18
2017-07-04T00:42:04.796Z,938.17
2017-07-04T00:42:23.663Z,938.18
2017-07-04T00:42:43.121Z,938.18
2017-07-04T00:43:02.568Z,938.2
2017-07-04T00:43:22.584Z,938.23
2017-07-04T00:43:40.881Z,938.23
2017-07-04T00:44:00.882Z,938.19
2017-07-04T00:44:20.888Z,938.18
2017-07-04T00:44:40.339Z,938.21
2017-07-04T00:44:59.808Z,938.13
2017-07-04T00:45:19.830Z,938.16
2017-07-04T00:45:38.708Z,938.14
2017-07-04T00:45:58.742Z,938.15
2017-07-04T00:46:17.617Z,938.18
2017-07-04T00:46:37.075Z,938.18
2017-07-04T00:46:55.954Z,938.1
2017-07-04T00:47:15.424Z,938.19
2017-07-04T00:47:34.324Z,938.17
2017-07-04T00:47:54.355Z,938.22
2017-07-04T00:48:14.373Z,938.17
2017-07-04T00:48:33.236Z,938.17
2017-07-04T00:48:52.167Z,938.18
2017-07-04T00:49:12.183Z,938.17
2017-07-04T00:49:31.060Z,938.17
2017-07-04T00:49:49.360Z,938.13
2017-07-04T00:50:07.651Z,938.21
2017-07-04T00:50:26.529Z,938.14
2017-07-04T00:50:46.005Z,938.16
2017-07-04T00:51:04.325Z,938.15
2017-07-04T00:51:23.795Z,938.19
2017-07-04T00:51:42.686Z,938.11
2017-07-04T00:52:01.582Z,938.13
2017-07-04T00:52:21.045Z,938.11
2017-07-04T00:52:39.931Z,938.12
2017-07-04T00:53:06.836Z,938.17
2017-07-04T00:53:26.280Z,938.16
2017-07-04T00:53:46.235Z,938.14
2017-07-04T00:54:05.105Z,938.14
2017-07-04T00:54:24.562Z,938.19
2017-07-04T00:54:43.460Z,938.13
2017-07-04T00:55:03.500Z,938.14
2017-07-04T00:55:23.513Z,938.15
2017-07-04T00:55:42.945Z,938.13
2017-07-04T00:56:02.392Z,938.14
2017-07-04T00:56:21.277Z,938.1
2017-07-04T00:56:39.035Z,938.13
2017-07-04T00:56:58.483Z,938.15
2017-07-04T00:57:17.384Z,938.16
2017-07-04T00:57:36.828Z,938.13
2017-07-04T00:57:56.838Z,938.09
2017-07-04T00:58:16.290Z,938.11
2017-07-04T00:58:36.316Z,938.15
2017-07-04T00:58:55.770Z,938.15
2017-07-04T00:59:15.240Z,938.1
2017-07-04T00:59:34.676Z,938.1
2017-07-04T00:59:53.558Z,938.13
2017-07-04T01:00:12.446Z,938.14
2017-07-04T01:00:31.323Z,938.13
2017-07-04T01:00:50.789Z,938.13
2017-07-04T01:01:10.260Z,938.11
2017-07-04T01:01:29.715Z,938.14
2017-07-04T01:01:48.592Z,938.11
2017-07-04T01:02:08.643Z,938.12
2017-07-04T01:02:28.094Z,938.1
2017-07-04T01:02:47.602Z,938.13
2017-07-04T01:03:07.035Z,938.13
2017-07-04T01:03:26.482Z,938.17
2017-07-04T01:03:45.342Z,938.16
2017-07-04T01:04:04.208Z,938.15
2017-07-04T01:04:23.093Z,938.16
2017-07-04T01:04:42.558Z,938.1
2017-07-04T01:05:02.626Z,938.15
2017-07-04T01:05:22.670Z,938.18
2017-07-04T01:05:40.970Z,938.16
2017-07-04T01:06:00.418Z,938.12
2017-07-04T01:06:19.864Z,938.15
2017-07-04T01:06:39.307Z,938.17
2017-07-04T01:06:57.595Z,938.12
2017-07-04T01:07:17.040Z,938.14
2017-07-04T01:07:35.346Z,938.09
2017-07-04T01:07:54.244Z,938.12
2017-07-04T01:08:11.976Z,938.14
2017-07-04T01:08:30.286Z,938.13
2017-07-04T01:08:49.724Z,938.11
2017-07-04T01:09:09.187Z,938.11
2017-07-04T01:09:29.193Z,938.09
2017-07-04T01:09:48.657Z,938.13
2017-07-04T01:10:08.102Z,938.11
2017-07-04T01:10:26.969Z,938.08
2017-07-04T01:10:45.844Z,938.08
2017-07-04T01:11:05.296Z,938.05
2017-07-04T01:11:24.741Z,938.07
2017-07-04T01:11:44.216Z,938.11
2017-07-04T01:12:03.669Z,938.14
2017-07-04T01:12:23.103Z,938.08
2017-07-04T01:12:40.881Z,938.08
2017-07-04T01:13:00.901Z,938.13
2017-07-04T01:13:20.339Z,938.16
2017-07-04T01:13:40.327Z,938.13
2017-07-04T01:13:59.780Z,938.11
2017-07-04T01:14:19.793Z,938.16
2017-07-04T01:14:39.260Z,938.14
2017-07-04T01:14:58.709Z,938.15
2017-07-04T01:15:18.153Z,938.13
2017-07-04T01:15:37.019Z,938.13
2017-07-04T01:15:56.466Z,938.12
2017-07-04T01:16:16.532Z,938.17
2017-07-04T01:16:34.851Z,938.11
2017-07-04T01:16:54.843Z,938.17
2017-07-04T01:17:14.294Z,938.11
2017-07-04T01:17:33.160Z,938.14
2017-07-04T01:17:52.060Z,938.15
2017-07-04T01:18:10.940Z,938.15
2017-07-04T01:18:30.929Z,938.15
2017-07-04T01:18:51.127Z,938.17
2017-07-04T01:19:11.160Z,938.15
2017-07-04T01:19:29.479Z,938.19
2017-07-04T01:19:48.371Z,938.16
2017-07-04T01:20:08.386Z,938.17
2017-07-04T01:20:27.844Z,938.19
2017-07-04T01:20:47.289Z,938.2
2017-07-04T01:21:07.325Z,938.14
2017-07-04T01:21:26.192Z,938.14
2017-07-04T01:21:45.091Z,938.11
2017-07-04T01:22:04.529Z,938.14
2017-07-04T01:22:23.407Z,938.16
2017-07-04T01:22:42.286Z,938.12
2017-07-04T01:23:00.624Z,938.15
2017-07-04T01:23:19.516Z,938.17
2017-07-04T01:23:38.942Z,938.18
2017-07-04T01:23:57.818Z,938.13
2017-07-04T01:24:16.692Z,938.16
2017-07-04T01:24:36.762Z,938.16
2017-07-04T01:24:56.839Z,938.15
2017-07-04T01:25:16.877Z,938.16
2017-07-04T01:25:34.598Z,938.15
2017-07-04T01:25:54.030Z,938.12
2017-07-04T01:26:13.449Z,938.14
2017-07-04T01:26:32.879Z,938.16
2017-07-04T01:26:52.876Z,938.11
2017-07-04T01:27:12.880Z,938.17
2017-07-04T01:27:31.798Z,938.16
2017-07-04T01:27:51.250Z,938.22
2017-07-04T01:28:10.702Z,938.18
2017-07-04T01:28:29.597Z,938.19
2017-07-04T01:28:49.614Z,938.2
2017-07-04T01:29:08.495Z,938.26
2017-07-04T01:29:26.805Z,938.19
2017-07-04T01:29:46.248Z,938.18
2017-07-04T01:30:05.676Z,938.21
2017-07-04T01:30:25.166Z,938.23
2017-07-04T01:30:44.774Z,938.24
2017-07-04T01:31:04.232Z,938.25
2017-07-04T01:31:24.241Z,938.21
2017-07-04T01:31:44.273Z,938.24
2017-07-04T01:32:02.595Z,938.23
2017-07-04T01:32:22.615Z,938.27
2017-07-04T01:32:41.480Z,938.23
2017-07-04T01:33:00.346Z,938.26
2017-07-04T01:33:18.658Z,938.27
2017-07-04T01:33:38.145Z,938.34
2017-07-04T01:33:58.190Z,938.32
2017-07-04T01:34:17.628Z,938.31
2017-07-04T01:34:37.670Z,938.33
2017-07-04T01:34:56.572Z,938.33
2017-07-04T01:35:16.078Z,938.36
2017-07-04T01:35:36.116Z,938.33
2017-07-04T01:35:56.138Z,938.32
2017-07-04T01:36:14.448Z,938.31
2017-07-04T01:36:33.897Z,938.32
2017-07-04T01:36:53.365Z,938.37
2017-07-04T01:37:13.381Z,938.36
2017-07-04T01:37:32.834Z,938.4
2017-07-04T01:37:51.702Z,938.34
2017-07-04T01:38:11.153Z,938.38
2017-07-04T01:38:30.223Z,938.36
2017-07-04T01:38:49.684Z,938.37
2017-07-04T01:39:09.131Z,938.42
2017-07-04T01:39:28.557Z,938.42
2017-07-04T01:39:48.582Z,938.45
2017-07-04T01:40:08.024Z,938.48
2017-07-04T01:40:28.064Z,938.45
2017-07-04T01:40:46.932Z,938.48
2017-07-04T01:41:05.803Z,938.49
2017-07-04T01:41:25.858Z,938.48
2017-07-04T01:41:45.315Z,938.51
2017-07-04T01:42:03.610Z,938.47
2017-07-04T01:42:23.612Z,938.48
2017-07-04T01:42:42.497Z,938.51
2017-07-04T01:43:01.938Z,938.48
2017-07-04T01:43:20.832Z,938.49
2017-07-04T01:43:39.814Z,938.5
2017-07-04T01:43:59.255Z,938.52
2017-07-04T01:44:18.135Z,938.5
2017-07-04T01:44:37.646Z,938.51
2017-07-04T01:44:55.983Z,938.48
2017-07-04T01:45:14.281Z,938.46
2017-07-04T01:45:34.283Z,938.48
2017-07-04T01:45:53.733Z,938.49
2017-07-04T01:46:12.698Z,938.49
2017-07-04T01:46:32.137Z,938.44
2017-07-04T01:46:51.580Z,938.44
2017-07-04T01:47:11.667Z,938.41
2017-07-04T01:47:31.150Z,938.41
2017-07-04T01:47:50.606Z,938.41
2017-07-04T01:48:10.056Z,938.44
2017-07-04T01:48:30.065Z,938.42
2017-07-04T01:48:49.521Z,938.37
2017-07-04T01:49:09.510Z,938.38
2017-07-04T01:49:28.960Z,938.42
2017-07-04T01:49:48.407Z,938.35
2017-07-04T01:50:08.450Z,938.36
2017-07-04T01:50:27.881Z,938.35
2017-07-04T01:50:46.238Z,938.36
2017-07-04T01:51:04.531Z,938.38
2017-07-04T01:51:23.451Z,938.36
2017-07-04T01:51:43.476Z,938.37
2017-07-04T01:52:02.936Z,938.4
2017-07-04T01:52:21.261Z,938.36
2017-07-04T01:52:40.704Z,938.36
2017-07-04T01:53:00.149Z,938.38
2017-07-04T01:53:19.664Z,938.37
2017-07-04T01:53:39.727Z,938.32
2017-07-04T01:53:59.769Z,938.37
2017-07-04T01:54:19.786Z,938.41
2017-07-04T01:54:39.213Z,938.38
2017-07-04T01:54:58.112Z,938.38
2017-07-04T01:55:17.537Z,938.38
2017-07-04T01:55:37.601Z,938.4
2017-07-04T01:55:56.468Z,938.36
2017-07-04T01:56:16.472Z,938.4
2017-07-04T01:56:34.764Z,938.43
2017-07-04T01:56:54.769Z,938.39
2017-07-04T01:57:13.651Z,938.33
2017-07-04T01:57:32.526Z,938.39
2017-07-04T01:57:51.961Z,938.36
2017-07-04T01:58:11.414Z,938.41
2017-07-04T01:58:29.709Z,938.4
2017-07-04T01:58:49.155Z,938.42
2017-07-04T01:59:08.594Z,938.35
2017-07-04T01:59:28.610Z,938.43
2017-07-04T01:59:46.918Z,938.39
2017-07-04T02:00:06.341Z,938.38
2017-07-04T02:00:25.201Z,938.41
2017-07-04T02:00:44.060Z,938.36
2017-07-04T02:01:03.525Z,938.35
2017-07-04T02:01:23.546Z,938.35
2017-07-04T02:01:41.844Z,938.35
2017-07-04T02:02:01.313Z,938.41
2017-07-04T02:02:20.178Z,938.41
2017-07-04T02:02:40.224Z,938.37
2017-07-04T02:02:59.683Z,938.36
2017-07-04T02:03:17.997Z,938.4
2017-07-04T02:03:37.637Z,938.38
2017-07-04T02:04:11.499Z,938.41
2017-07-04T02:04:30.964Z,938.41
2017-07-04T02:04:50.411Z,938.43
2017-07-04T02:05:09.339Z,938.39
2017-07-04T02:05:28.810Z,938.43
2017-07-04T02:05:47.710Z,938.43
2017-07-04T02:06:05.998Z,938.37
2017-07-04T02:06:25.452Z,938.41
2017-07-04T02:06:44.867Z,938.4
2017-07-04T02:07:03.775Z,938.4
2017-07-04T02:07:23.207Z,938.4
2017-07-04T02:07:43.271Z,938.4
2017-07-04T02:08:03.281Z,938.37
2017-07-04T02:08:22.733Z,938.38
2017-07-04T02:08:42.746Z,938.36
2017-07-04T02:09:01.620Z,938.36
2017-07-04T02:09:20.531Z,938.38
2017-07-04T02:09:40.002Z,938.38
2017-07-04T02:09:59.341Z,938.4
2017-07-04T02:10:18.334Z,938.37
2017-07-04T02:10:38.316Z,938.35
2017-07-04T02:10:58.338Z,938.35
2017-07-04T02:11:17.826Z,938.39
2017-07-04T02:11:37.292Z,938.34
2017-07-04T02:11:55.597Z,938.34
2017-07-04T02:12:15.612Z,938.38
2017-07-04T02:12:34.486Z,938.34
2017-07-04T02:12:53.348Z,938.36
2017-07-04T02:13:12.785Z,938.35
2017-07-04T02:13:32.246Z,938.32
2017-07-04T02:13:51.121Z,938.32
2017-07-04T02:14:10.551Z,938.35
2017-07-04T02:14:30.581Z,938.36
2017-07-04T02:14:50.018Z,938.37
2017-07-04T02:15:09.458Z,938.38
2017-07-04T02:15:28.900Z,938.38
2017-07-04T02:15:48.362Z,938.39
2017-07-04T02:16:07.251Z,938.41
2017-07-04T02:16:26.734Z,938.4
2017-07-04T02:16:46.166Z,938.36
2017-07-04T02:17:05.631Z,938.4
2017-07-04T02:17:25.644Z,938.39
2017-07-04T02:17:44.513Z,938.41
2017-07-04T02:18:04.531Z,938.43
2017-07-04T02:18:24.549Z,938.44
2017-07-04T02:18:44.023Z,938.45
2017-07-04T02:19:03.487Z,938.4
2017-07-04T02:19:23.515Z,938.42
2017-07-04T02:19:42.959Z,938.41
2017-07-04T02:20:03.004Z,938.43
2017-07-04T02:20:22.458Z,938.42
2017-07-04T02:20:40.828Z,938.39
2017-07-04T02:21:00.863Z,938.41
2017-07-04T02:21:19.154Z,938.41
2017-07-04T02:21:37.469Z,938.39
2017-07-04T02:21:56.935Z,938.44
2017-07-04T02:22:15.799Z,938.41
2017-07-04T02:22:34.685Z,938.42
2017-07-04T02:22:54.693Z,938.4
2017-07-04T02:23:13.575Z,938.4
2017-07-04T02:23:33.059Z,938.45
2017-07-04T02:23:52.495Z,938.41
2017-07-04T02:24:12.512Z,938.44
2017-07-04T02:24:32.532Z,938.42
2017-07-04T02:24:52.603Z,938.37
2017-07-04T02:25:11.622Z,938.41
2017-07-04T02:25:30.519Z,938.42
2017-07-04T02:25:49.980Z,938.37
2017-07-04T02:26:09.437Z,938.38
2017-07-04T02:26:28.306Z,938.37
2017-07-04T02:26:46.637Z,938.37
2017-07-04T02:27:06.084Z,938.39
2017-07-04T02:27:25.548Z,938.38
2017-07-04T02:27:43.301Z,938.41
2017-07-04T02:28:01.604Z,938.4
2017-07-04T02:28:20.477Z,938.36
2017-07-04T02:28:39.944Z,938.38
2017-07-04T02:28:59.982Z,938.42
2017-07-04T02:29:19.485Z,938.43
2017-07-04T02:29:38.929Z,938.42
2017-07-04T02:29:58.407Z,938.43
2017-07-04T02:30:17.849Z,938.4
2017-07-04T02:30:37.311Z,938.43
2017-07-04T02:30:56.742Z,938.43
2017-07-04T02:31:16.763Z,938.4
2017-07-04T02:31:36.772Z,938.4
2017-07-04T02:31:56.210Z,938.41
2017-07-04T02:32:15.653Z,938.41
2017-07-04T02:32:35.662Z,938.39
2017-07-04T02:32:55.711Z,938.41
2017-07-04T02:33:15.153Z,938.43
2017-07-04T02:33:34.695Z,938.43
2017-07-04T02:33:54.118Z,938.43
2017-07-04T02:34:14.124Z,938.41
2017-07-04T02:34:34.119Z,938.43
2017-07-04T02:34:52.413Z,938.44
2017-07-04T02:35:12.437Z,938.46
2017-07-04T02:35:31.883Z,938.46
2017-07-04T02:35:51.882Z,938.47
2017-07-04T02:36:11.361Z,938.46
2017-07-04T02:36:29.659Z,938.45
2017-07-04T02:36:49.124Z,938.47
2017-07-04T02:37:08.612Z,938.51
2017-07-04T02:37:27.475Z,938.5
2017-07-04T02:37:47.482Z,938.48
2017-07-04T02:38:07.496Z,938.51
2017-07-04T02:38:26.929Z,938.51
2017-07-04T02:38:46.363Z,938.53
2017-07-04T02:39:06.409Z,938.5
2017-07-04T02:39:26.435Z,938.47
2017-07-04T02:39:45.873Z,938.45
2017-07-04T02:40:04.165Z,938.45
2017-07-04T02:40:23.583Z,938.44
2017-07-04T02:40:43.605Z,938.45
2017-07-04T02:41:03.605Z,938.46
2017-07-04T02:41:23.046Z,938.46
2017-07-04T02:41:41.989Z,938.43
2017-07-04T02:42:01.403Z,938.44
2017-07-04T02:42:20.267Z,938.45
2017-07-04T02:42:39.701Z,938.4
2017-07-04T02:42:59.162Z,938.38
2017-07-04T02:43:19.156Z,938.38
2017-07-04T02:43:38.594Z,938.37
2017-07-04T02:43:58.039Z,938.4
2017-07-04T02:44:16.929Z,938.42
2017-07-04T02:44:35.243Z,938.36
2017-07-04T02:44:54.148Z,938.33
2017-07-04T02:45:13.043Z,938.36
2017-07-04T02:45:32.521Z,938.34
2017-07-04T02:45:52.555Z,938.36
2017-07-04T02:46:10.286Z,938.39
2017-07-04T02:46:29.737Z,938.39
2017-07-04T02:46:49.185Z,938.38
2017-07-04T02:47:08.623Z,938.34
2017-07-04T02:47:28.647Z,938.35
2017-07-04T02:47:47.524Z,938.29
2017-07-04T02:48:06.973Z,938.29
2017-07-04T02:48:25.862Z,938.38
2017-07-04T02:48:45.301Z,938.37
2017-07-04T02:49:05.304Z,938.27
2017-07-04T02:49:24.780Z,938.32
2017-07-04T02:49:44.818Z,938.36
2017-07-04T02:50:04.857Z,938.36
2017-07-04T02:50:23.186Z,938.36
2017-07-04T02:50:40.930Z,938.31
2017-07-04T02:51:00.359Z,938.37
2017-07-04T02:51:19.234Z,938.36
2017-07-04T02:51:37.535Z,938.39
2017-07-04T02:51:57.564Z,938.39
2017-07-04T02:52:16.453Z,938.36
2017-07-04T02:52:35.354Z,938.34
2017-07-04T02:52:54.846Z,938.39
2017-07-04T02:53:13.725Z,938.41
2017-07-04T02:53:33.329Z,938.43
2017-07-04T02:53:52.760Z,938.38
2017-07-04T02:54:11.059Z,938.39
2017-07-04T02:54:29.952Z,938.36
2017-07-04T02:54:48.269Z,938.42
2017-07-04T02:55:07.759Z,938.44
2017-07-04T02:55:26.062Z,938.38
2017-07-04T02:55:45.533Z,938.35
2017-07-04T02:56:04.420Z,938.4
2017-07-04T02:56:23.302Z,938.35
2017-07-04T02:56:41.623Z,938.36
2017-07-04T02:57:00.500Z,938.39
2017-07-04T02:57:20.538Z,938.37
2017-07-04T02:57:40.015Z,938.37
2017-07-04T02:57:59.475Z,938.37
2017-07-04T02:58:18.377Z,938.31
2017-07-04T02:58:38.376Z,938.32
2017-07-04T02:58:58.400Z,938.34
2017-07-04T02:59:19.475Z,938.27
2017-07-04T02:59:39.505Z,938.26
2017-07-04T02:59:59.523Z,938.3
2017-07-04T03:00:19.002Z,938.26
2017-07-04T03:00:38.459Z,938.25
2017-07-04T03:00:57.945Z,938.26
2017-07-04T03:01:16.257Z,938.31
2017-07-04T03:01:35.117Z,938.3
2017-07-04T03:01:54.563Z,938.29
2017-07-04T03:02:12.880Z,938.34
2017-07-04T03:02:31.215Z,938.31
2017-07-04T03:02:51.239Z,938.33
2017-07-04T03:03:10.123Z,938.33
2017-07-04T03:03:30.150Z,938.35
2017-07-04T03:03:49.599Z,938.3
2017-07-04T03:04:09.602Z,938.31
2017-07-04T03:04:29.024Z,938.26
2017-07-04T03:04:49.058Z,938.26
2017-07-04T03:05:07.955Z,938.31
2017-07-04T03:05:27.405Z,938.31
2017-07-04T03:05:47.459Z,938.32
2017-07-04T03:06:06.359Z,938.28
2017-07-04T03:06:25.813Z,938.28
2017-07-04T03:06:45.268Z,938.29
2017-07-04T03:07:04.725Z,938.22
2017-07-04T03:07:23.619Z,938.32
2017-07-04T03:07:43.632Z,938.26
2017-07-04T03:08:03.069Z,938.29
2017-07-04T03:08:21.379Z,938.32
2017-07-04T03:08:40.837Z,938.27
2017-07-04T03:09:00.859Z,938.24
2017-07-04T03:09:19.141Z,938.28
2017-07-04T03:09:38.563Z,938.29
2017-07-04T03:09:57.488Z,938.27
2017-07-04T03:10:16.372Z,938.29
2017-07-04T03:10:35.263Z,938.25
2017-07-04T03:10:54.698Z,938.28
2017-07-04T03:11:14.705Z,938.26
2017-07-04T03:11:33.555Z,938.26
2017-07-04T03:11:51.874Z,938.25
2017-07-04T03:12:10.742Z,938.25
2017-07-04T03:12:30.765Z,938.25
2017-07-04T03:12:50.230Z,938.24
2017-07-04T03:13:09.682Z,938.24
2017-07-04T03:13:29.688Z,938.22
2017-07-04T03:13:49.137Z,938.19
2017-07-04T03:14:07.997Z,938.25
2017-07-04T03:14:28.006Z,938.29
2017-07-04T03:14:46.867Z,938.25
2017-07-04T03:15:06.911Z,938.18
2017-07-04T03:15:26.365Z,938.15
2017-07-04T03:15:45.824Z,938.23
2017-07-04T03:16:05.837Z,938.18
2017-07-04T03:16:25.871Z,938.2
2017-07-04T03:16:45.899Z,938.22
2017-07-04T03:17:04.769Z,938.23
2017-07-04T03:17:23.644Z,938.21
2017-07-04T03:17:43.102Z,938.27
2017-07-04T03:18:02.549Z,938.23
2017-07-04T03:18:21.436Z,938.27
2017-07-04T03:18:40.858Z,938.25
2017-07-04T03:19:00.313Z,938.28
2017-07-04T03:19:19.209Z,938.27
2017-07-04T03:19:38.657Z,938.26
2017-07-04T03:19:56.948Z,938.24
2017-07-04T03:20:16.398Z,938.27
2017-07-04T03:20:35.296Z,938.23
2017-07-04T03:20:54.167Z,938.26
2017-07-04T03:21:14.174Z,938.24
2017-07-04T03:21:33.038Z,938.17
2017-07-04T03:21:53.078Z,938.19
2017-07-04T03:22:11.958Z,938.19
2017-07-04T03:22:30.815Z,938.24
2017-07-04T03:22:50.243Z,938.23
2017-07-04T03:23:08.550Z,938.2
2017-07-04T03:23:28.587Z,938.17
2017-07-04T03:23:48.058Z,938.17
2017-07-04T03:24:07.495Z,938.06
2017-07-04T03:24:26.991Z,938.18
2017-07-04T03:24:45.866Z,938.23
2017-07-04T03:25:05.892Z,938.2
2017-07-04T03:25:25.321Z,938.26
2017-07-04T03:25:44.753Z,938.15
2017-07-04T03:26:03.059Z,938.18
2017-07-04T03:26:21.354Z,938.18
2017-07-04T03:26:41.400Z,938.22
2017-07-04T03:27:00.274Z,938.21
2017-07-04T03:27:19.718Z,938.19
2017-07-04T03:27:38.585Z,938.12
2017-07-04T03:27:57.474Z,938.15
2017-07-04T03:28:16.954Z,938.13
2017-07-04T03:28:36.418Z,938.09
2017-07-04T03:28:56.445Z,938.24
2017-07-04T03:29:16.471Z,938.13
2017-07-04T03:29:36.516Z,938.12
2017-07-04T03:29:56.537Z,938.09
2017-07-04T03:30:15.416Z,938.07
2017-07-04T03:30:34.859Z,938.2
2017-07-04T03:30:54.305Z,938.2
2017-07-04T03:31:12.622Z,938.2
2017-07-04T03:31:31.496Z,938.17
2017-07-04T03:31:49.790Z,938.13
2017-07-04T03:32:09.823Z,938.07
2017-07-04T03:32:29.832Z,938.1
2017-07-04T03:32:49.267Z,938.12
2017-07-04T03:33:08.134Z,938.1
2017-07-04T03:33:28.155Z,938.12
2017-07-04T03:33:47.055Z,938.19
2017-07-04T03:34:05.933Z,938.2
2017-07-04T03:34:25.965Z,938.18
2017-07-04T03:34:45.986Z,938.22
2017-07-04T03:35:05.451Z,938.18
2017-07-04T03:35:24.894Z,938.15
2017-07-04T03:35:44.886Z,938.21
2017-07-04T03:36:03.728Z,938.19
2017-07-04T03:36:23.195Z,938.2
2017-07-04T03:36:42.631Z,938.19
2017-07-04T03:37:01.509Z,938.19
2017-07-04T03:37:20.953Z,938.23
2017-07-04T03:37:40.383Z,938.19
2017-07-04T03:37:59.261Z,938.16
2017-07-04T03:38:18.133Z,938.12
2017-07-04T03:38:37.030Z,938.17
2017-07-04T03:38:57.049Z,938.12
2017-07-04T03:39:16.489Z,938.14
2017-07-04T03:39:35.375Z,938.14
2017-07-04T03:39:54.813Z,938.14
2017-07-04T03:40:14.251Z,938.1
2017-07-04T03:40:33.717Z,938.08
2017-07-04T03:40:53.712Z,938.12
2017-07-04T03:41:12.023Z,938.05
2017-07-04T03:41:31.489Z,938.07
2017-07-04T03:41:49.778Z,938.04
2017-07-04T03:42:09.800Z,938.03
2017-07-04T03:42:29.242Z,938.13
2017-07-04T03:42:49.265Z,938.06
2017-07-04T03:43:08.753Z,938.09
2017-07-04T03:43:28.167Z,938.11
2017-07-04T03:43:48.180Z,938.06
2017-07-04T03:44:07.630Z,938.12
2017-07-04T03:44:27.656Z,938.11
2017-07-04T03:44:47.102Z,938.11
2017-07-04T03:45:05.998Z,938.11
2017-07-04T03:45:24.873Z,938.11
2017-07-04T03:45:43.781Z,938.09
2017-07-04T03:46:02.634Z,938.11
2017-07-04T03:46:22.645Z,938.13
2017-07-04T03:46:42.088Z,938.09
2017-07-04T03:47:02.090Z,938.07
2017-07-04T03:47:21.521Z,938.09
2017-07-04T03:47:41.575Z,938.03
2017-07-04T03:48:00.457Z,938.05
2017-07-04T03:48:20.462Z,937.97
2017-07-04T03:48:39.928Z,938.09
2017-07-04T03:48:59.986Z,937.98
2017-07-04T03:49:18.845Z,938.03
2017-07-04T03:49:37.725Z,938.04
2017-07-04T03:49:56.599Z,938.01
2017-07-04T03:50:15.480Z,938.02
2017-07-04T03:50:34.912Z,938.03
2017-07-04T03:50:53.220Z,937.97
2017-07-04T03:51:13.198Z,938.03
2017-07-04T03:51:32.060Z,937.95
2017-07-04T03:51:51.514Z,938.04
2017-07-04T03:52:10.974Z,938.04
2017-07-04T03:52:29.852Z,938
2017-07-04T03:52:49.877Z,938.02
2017-07-04T03:53:09.319Z,938.02
2017-07-04T03:53:28.806Z,938
2017-07-04T03:53:48.257Z,937.97
2017-07-04T03:54:07.707Z,938.01
2017-07-04T03:54:27.169Z,937.99
2017-07-04T03:54:46.045Z,937.95
2017-07-04T03:55:05.503Z,938.02
2017-07-04T03:55:24.949Z,937.95
2017-07-04T03:55:44.384Z,937.97
2017-07-04T03:56:03.249Z,938
2017-07-04T03:56:22.730Z,937.92
2017-07-04T03:56:40.485Z,938.05
2017-07-04T03:56:59.922Z,938.01
2017-07-04T03:57:19.342Z,937.97
2017-07-04T03:57:38.792Z,938
2017-07-04T03:57:58.262Z,938.06
2017-07-04T03:58:17.718Z,938.05
2017-07-04T03:58:37.747Z,937.95
2017-07-04T03:58:57.234Z,938.01
2017-07-04T03:59:16.741Z,938.11
2017-07-04T03:59:36.755Z,938.1
2017-07-04T03:59:55.635Z,938.11
2017-07-04T04:00:14.519Z,938.04
2017-07-04T04:00:33.967Z,938.04
2017-07-04T04:00:53.432Z,937.99
2017-07-04T04:01:12.297Z,938.03
2017-07-04T04:01:31.734Z,938.04
2017-07-04T04:01:50.605Z,937.99